sensor_id;sensor_type;location;lat;lon;timestamp;P1;durP1;ratioP1;P2;durP2;ratioP2
30020;SDS011;16861;52.294;7.760;2023-06-10T00:00:20;6.05;;;4.22;;
30020;SDS011;16861;52.294;7.760;2023-06-10T00:02:47;8.32;;;4.80;;
30020;SDS011;16861;52.294;7.760;2023-06-10T00:05:14;8.38;;;5.13;;
30020;SDS011;16861;52.294;7.760;2023-06-10T00:07:42;11.52;;;4.93;;
30020;SDS011;16861;52.294;7.760;2023-06-10T00:10:09;7.22;;;5.05;;
30020;SDS011;16861;52.294;7.760;2023-06-10T00:12:37;8.57;;;5.00;;
30020;SDS011;16861;52.294;7.760;2023-06-10T00:15:05;6.57;;;4.35;;
30020;SDS011;16861;52.294;7.760;2023-06-10T00:17:32;5.70;;;4.82;;
30020;SDS011;16861;52.294;7.760;2023-06-10T00:19:59;9.32;;;4.95;;
30020;SDS011;16861;52.294;7.760;2023-06-10T00:22:26;7.97;;;5.05;;
30020;SDS011;16861;52.294;7.760;2023-06-10T00:24:55;9.85;;;4.80;;
30020;SDS011;16861;52.294;7.760;2023-06-10T00:27:25;6.35;;;4.68;;
30020;SDS011;16861;52.294;7.760;2023-06-10T00:29:57;12.20;;;5.60;;
30020;SDS011;16861;52.294;7.760;2023-06-10T00:32:24;7.28;;;5.05;;
30020;SDS011;16861;52.294;7.760;2023-06-10T00:34:51;6.60;;;4.63;;
30020;SDS011;16861;52.294;7.760;2023-06-10T00:37:17;9.73;;;4.97;;
30020;SDS011;16861;52.294;7.760;2023-06-10T00:39:44;8.65;;;5.38;;
30020;SDS011;16861;52.294;7.760;2023-06-10T00:42:10;7.10;;;5.10;;
30020;SDS011;16861;52.294;7.760;2023-06-10T00:44:37;8.23;;;5.10;;
30020;SDS011;16861;52.294;7.760;2023-06-10T00:47:04;9.65;;;5.13;;
30020;SDS011;16861;52.294;7.760;2023-06-10T00:49:32;10.52;;;4.93;;
30020;SDS011;16861;52.294;7.760;2023-06-10T00:51:59;9.25;;;5.35;;
30020;SDS011;16861;52.294;7.760;2023-06-10T00:54:26;9.93;;;5.53;;
30020;SDS011;16861;52.294;7.760;2023-06-10T00:56:53;8.63;;;5.50;;
30020;SDS011;16861;52.294;7.760;2023-06-10T00:59:20;5.70;;;4.80;;
30020;SDS011;16861;52.294;7.760;2023-06-10T01:01:46;8.02;;;4.90;;
30020;SDS011;16861;52.294;7.760;2023-06-10T01:04:13;7.82;;;4.88;;
30020;SDS011;16861;52.294;7.760;2023-06-10T01:06:49;7.63;;;5.22;;
30020;SDS011;16861;52.294;7.760;2023-06-10T01:09:33;9.15;;;4.70;;
30020;SDS011;16861;52.294;7.760;2023-06-10T01:12:12;7.28;;;5.00;;
30020;SDS011;16861;52.294;7.760;2023-06-10T01:14:45;7.95;;;4.93;;
30020;SDS011;16861;52.294;7.760;2023-06-10T01:17:12;10.90;;;4.82;;
30020;SDS011;16861;52.294;7.760;2023-06-10T01:19:43;8.52;;;5.25;;
30020;SDS011;16861;52.294;7.760;2023-06-10T01:22:10;7.05;;;4.80;;
30020;SDS011;16861;52.294;7.760;2023-06-10T01:24:42;8.48;;;5.22;;
30020;SDS011;16861;52.294;7.760;2023-06-10T01:27:11;6.22;;;4.88;;
30020;SDS011;16861;52.294;7.760;2023-06-10T01:29:41;8.38;;;5.30;;
30020;SDS011;16861;52.294;7.760;2023-06-10T01:32:12;7.75;;;5.15;;
30020;SDS011;16861;52.294;7.760;2023-06-10T01:34:43;7.90;;;5.10;;
30020;SDS011;16861;52.294;7.760;2023-06-10T01:37:14;8.05;;;5.50;;
30020;SDS011;16861;52.294;7.760;2023-06-10T01:39:45;6.95;;;5.30;;
30020;SDS011;16861;52.294;7.760;2023-06-10T01:42:13;12.02;;;5.38;;
30020;SDS011;16861;52.294;7.760;2023-06-10T01:44:40;9.25;;;5.97;;
30020;SDS011;16861;52.294;7.760;2023-06-10T01:47:08;8.68;;;5.40;;
30020;SDS011;16861;52.294;7.760;2023-06-10T01:49:35;7.38;;;5.18;;
30020;SDS011;16861;52.294;7.760;2023-06-10T01:52:02;9.85;;;5.55;;
30020;SDS011;16861;52.294;7.760;2023-06-10T01:54:28;16.23;;;5.35;;
30020;SDS011;16861;52.294;7.760;2023-06-10T01:56:55;10.63;;;5.25;;
30020;SDS011;16861;52.294;7.760;2023-06-10T01:59:22;7.68;;;4.82;;
30020;SDS011;16861;52.294;7.760;2023-06-10T02:01:48;11.68;;;5.40;;
30020;SDS011;16861;52.294;7.760;2023-06-10T02:04:15;7.90;;;5.47;;
30020;SDS011;16861;52.294;7.760;2023-06-10T02:06:42;9.65;;;5.50;;
30020;SDS011;16861;52.294;7.760;2023-06-10T02:09:09;11.07;;;5.30;;
30020;SDS011;16861;52.294;7.760;2023-06-10T02:11:36;7.88;;;4.82;;
30020;SDS011;16861;52.294;7.760;2023-06-10T02:14:02;8.38;;;5.68;;
30020;SDS011;16861;52.294;7.760;2023-06-10T02:16:29;8.18;;;5.15;;
30020;SDS011;16861;52.294;7.760;2023-06-10T02:18:57;6.60;;;4.90;;
30020;SDS011;16861;52.294;7.760;2023-06-10T02:21:24;11.68;;;5.35;;
30020;SDS011;16861;52.294;7.760;2023-06-10T02:23:50;7.30;;;4.95;;
30020;SDS011;16861;52.294;7.760;2023-06-10T02:26:17;8.50;;;4.97;;
30020;SDS011;16861;52.294;7.760;2023-06-10T02:28:43;10.20;;;5.60;;
30020;SDS011;16861;52.294;7.760;2023-06-10T02:31:10;8.32;;;5.07;;
30020;SDS011;16861;52.294;7.760;2023-06-10T02:33:37;11.07;;;5.30;;
30020;SDS011;16861;52.294;7.760;2023-06-10T02:36:06;7.93;;;4.90;;
30020;SDS011;16861;52.294;7.760;2023-06-10T02:38:33;5.80;;;4.90;;
30020;SDS011;16861;52.294;7.760;2023-06-10T02:40:59;7.90;;;5.28;;
30020;SDS011;16861;52.294;7.760;2023-06-10T02:43:26;7.32;;;5.15;;
30020;SDS011;16861;52.294;7.760;2023-06-10T02:45:52;8.23;;;5.32;;
30020;SDS011;16861;52.294;7.760;2023-06-10T02:48:19;11.23;;;5.85;;
30020;SDS011;16861;52.294;7.760;2023-06-10T02:50:46;8.70;;;5.57;;
30020;SDS011;16861;52.294;7.760;2023-06-10T02:53:12;9.20;;;5.53;;
30020;SDS011;16861;52.294;7.760;2023-06-10T02:55:39;8.40;;;4.85;;
30020;SDS011;16861;52.294;7.760;2023-06-10T02:58:07;7.35;;;4.68;;
30020;SDS011;16861;52.294;7.760;2023-06-10T03:00:33;7.00;;;5.63;;
30020;SDS011;16861;52.294;7.760;2023-06-10T03:03:00;7.63;;;5.47;;
30020;SDS011;16861;52.294;7.760;2023-06-10T03:05:29;6.65;;;4.80;;
30020;SDS011;16861;52.294;7.760;2023-06-10T03:07:56;10.25;;;5.22;;
30020;SDS011;16861;52.294;7.760;2023-06-10T03:10:22;9.65;;;5.35;;
30020;SDS011;16861;52.294;7.760;2023-06-10T03:12:49;9.13;;;5.03;;
30020;SDS011;16861;52.294;7.760;2023-06-10T03:15:15;9.73;;;5.70;;
30020;SDS011;16861;52.294;7.760;2023-06-10T03:17:42;8.43;;;5.72;;
30020;SDS011;16861;52.294;7.760;2023-06-10T03:20:09;6.18;;;5.07;;
30020;SDS011;16861;52.294;7.760;2023-06-10T03:22:36;10.90;;;5.55;;
30020;SDS011;16861;52.294;7.760;2023-06-10T03:25:04;9.00;;;4.95;;
30020;SDS011;16861;52.294;7.760;2023-06-10T03:27:32;8.85;;;5.30;;
30020;SDS011;16861;52.294;7.760;2023-06-10T03:29:59;9.30;;;5.43;;
30020;SDS011;16861;52.294;7.760;2023-06-10T03:32:26;8.70;;;5.40;;
30020;SDS011;16861;52.294;7.760;2023-06-10T03:34:53;10.05;;;5.93;;
30020;SDS011;16861;52.294;7.760;2023-06-10T03:37:24;11.07;;;5.93;;
30020;SDS011;16861;52.294;7.760;2023-06-10T03:39:51;9.40;;;5.50;;
30020;SDS011;16861;52.294;7.760;2023-06-10T03:42:17;10.65;;;5.57;;
30020;SDS011;16861;52.294;7.760;2023-06-10T03:47:17;7.45;;;5.47;;
30020;SDS011;16861;52.294;7.760;2023-06-10T03:49:44;9.55;;;5.13;;
30020;SDS011;16861;52.294;7.760;2023-06-10T03:52:10;10.05;;;5.82;;
30020;SDS011;16861;52.294;7.760;2023-06-10T03:54:37;10.95;;;5.13;;
30020;SDS011;16861;52.294;7.760;2023-06-10T03:57:04;10.00;;;5.50;;
30020;SDS011;16861;52.294;7.760;2023-06-10T03:59:31;11.57;;;5.55;;
30020;SDS011;16861;52.294;7.760;2023-06-10T04:02:00;10.18;;;5.70;;
30020;SDS011;16861;52.294;7.760;2023-06-10T04:04:27;6.13;;;5.20;;
30020;SDS011;16861;52.294;7.760;2023-06-10T04:06:54;6.13;;;5.18;;
30020;SDS011;16861;52.294;7.760;2023-06-10T04:09:20;7.32;;;4.93;;
30020;SDS011;16861;52.294;7.760;2023-06-10T04:11:47;10.15;;;5.35;;
30020;SDS011;16861;52.294;7.760;2023-06-10T04:14:14;7.38;;;5.25;;
30020;SDS011;16861;52.294;7.760;2023-06-10T04:16:41;8.55;;;5.60;;
30020;SDS011;16861;52.294;7.760;2023-06-10T04:19:08;8.90;;;5.45;;
30020;SDS011;16861;52.294;7.760;2023-06-10T04:21:35;12.15;;;4.88;;
30020;SDS011;16861;52.294;7.760;2023-06-10T04:24:02;9.30;;;5.07;;
30020;SDS011;16861;52.294;7.760;2023-06-10T04:26:29;8.05;;;4.90;;
30020;SDS011;16861;52.294;7.760;2023-06-10T04:28:55;9.35;;;5.50;;
30020;SDS011;16861;52.294;7.760;2023-06-10T04:31:22;7.13;;;4.57;;
30020;SDS011;16861;52.294;7.760;2023-06-10T04:33:49;8.20;;;4.90;;
30020;SDS011;16861;52.294;7.760;2023-06-10T04:36:16;8.00;;;5.47;;
30020;SDS011;16861;52.294;7.760;2023-06-10T04:38:43;9.65;;;4.72;;
30020;SDS011;16861;52.294;7.760;2023-06-10T04:41:09;9.85;;;4.60;;
30020;SDS011;16861;52.294;7.760;2023-06-10T04:43:36;8.20;;;4.82;;
30020;SDS011;16861;52.294;7.760;2023-06-10T04:46:03;9.00;;;4.93;;
30020;SDS011;16861;52.294;7.760;2023-06-10T04:48:33;11.23;;;5.63;;
30020;SDS011;16861;52.294;7.760;2023-06-10T04:51:01;7.53;;;4.72;;
30020;SDS011;16861;52.294;7.760;2023-06-10T04:53:27;10.43;;;4.97;;
30020;SDS011;16861;52.294;7.760;2023-06-10T04:55:54;8.70;;;5.53;;
30020;SDS011;16861;52.294;7.760;2023-06-10T04:58:21;7.00;;;4.35;;
30020;SDS011;16861;52.294;7.760;2023-06-10T05:00:48;6.75;;;4.97;;
30020;SDS011;16861;52.294;7.760;2023-06-10T05:03:14;8.13;;;4.70;;
30020;SDS011;16861;52.294;7.760;2023-06-10T05:05:41;7.68;;;4.90;;
30020;SDS011;16861;52.294;7.760;2023-06-10T05:08:08;7.40;;;4.65;;
30020;SDS011;16861;52.294;7.760;2023-06-10T05:10:35;6.43;;;4.50;;
30020;SDS011;16861;52.294;7.760;2023-06-10T05:13:01;8.30;;;4.45;;
30020;SDS011;16861;52.294;7.760;2023-06-10T05:15:29;7.65;;;4.57;;
30020;SDS011;16861;52.294;7.760;2023-06-10T05:17:57;6.63;;;4.35;;
30020;SDS011;16861;52.294;7.760;2023-06-10T05:20:29;9.40;;;4.70;;
30020;SDS011;16861;52.294;7.760;2023-06-10T05:22:55;5.93;;;4.07;;
30020;SDS011;16861;52.294;7.760;2023-06-10T05:25:22;9.25;;;4.95;;
30020;SDS011;16861;52.294;7.760;2023-06-10T05:27:48;7.97;;;4.53;;
30020;SDS011;16861;52.294;7.760;2023-06-10T05:30:15;12.32;;;4.43;;
30020;SDS011;16861;52.294;7.760;2023-06-10T05:32:44;8.55;;;4.47;;
30020;SDS011;16861;52.294;7.760;2023-06-10T05:35:11;11.32;;;4.47;;
30020;SDS011;16861;52.294;7.760;2023-06-10T05:37:38;9.10;;;4.25;;
30020;SDS011;16861;52.294;7.760;2023-06-10T05:40:04;6.25;;;4.03;;
30020;SDS011;16861;52.294;7.760;2023-06-10T05:42:32;11.20;;;4.32;;
30020;SDS011;16861;52.294;7.760;2023-06-10T05:44:58;8.18;;;4.40;;
30020;SDS011;16861;52.294;7.760;2023-06-10T05:47:25;6.55;;;3.90;;
30020;SDS011;16861;52.294;7.760;2023-06-10T05:49:52;6.38;;;3.90;;
30020;SDS011;16861;52.294;7.760;2023-06-10T05:52:18;11.88;;;4.60;;
30020;SDS011;16861;52.294;7.760;2023-06-10T05:54:45;6.30;;;4.07;;
30020;SDS011;16861;52.294;7.760;2023-06-10T05:57:12;7.18;;;4.28;;
30020;SDS011;16861;52.294;7.760;2023-06-10T05:59:39;8.57;;;4.15;;
30020;SDS011;16861;52.294;7.760;2023-06-10T06:02:06;8.38;;;4.18;;
30020;SDS011;16861;52.294;7.760;2023-06-10T06:04:33;6.68;;;4.22;;
30020;SDS011;16861;52.294;7.760;2023-06-10T06:07:00;7.07;;;4.28;;
30020;SDS011;16861;52.294;7.760;2023-06-10T06:09:27;8.63;;;4.30;;
30020;SDS011;16861;52.294;7.760;2023-06-10T06:11:54;7.68;;;4.68;;
30020;SDS011;16861;52.294;7.760;2023-06-10T06:14:20;7.80;;;4.13;;
30020;SDS011;16861;52.294;7.760;2023-06-10T06:16:47;8.63;;;4.65;;
30020;SDS011;16861;52.294;7.760;2023-06-10T06:19:13;9.38;;;4.20;;
30020;SDS011;16861;52.294;7.760;2023-06-10T06:21:40;7.45;;;4.25;;
30020;SDS011;16861;52.294;7.760;2023-06-10T06:24:07;7.93;;;4.75;;
30020;SDS011;16861;52.294;7.760;2023-06-10T06:26:33;6.72;;;4.35;;
30020;SDS011;16861;52.294;7.760;2023-06-10T06:29:00;8.02;;;4.32;;
30020;SDS011;16861;52.294;7.760;2023-06-10T06:31:27;9.85;;;4.43;;
30020;SDS011;16861;52.294;7.760;2023-06-10T06:33:53;6.15;;;3.95;;
30020;SDS011;16861;52.294;7.760;2023-06-10T06:36:20;6.75;;;3.63;;
30020;SDS011;16861;52.294;7.760;2023-06-10T06:38:47;7.40;;;4.45;;
30020;SDS011;16861;52.294;7.760;2023-06-10T06:41:13;6.47;;;4.10;;
30020;SDS011;16861;52.294;7.760;2023-06-10T06:43:40;8.57;;;4.40;;
30020;SDS011;16861;52.294;7.760;2023-06-10T06:46:08;8.25;;;4.57;;
30020;SDS011;16861;52.294;7.760;2023-06-10T06:48:35;7.57;;;3.90;;
30020;SDS011;16861;52.294;7.760;2023-06-10T06:51:02;6.88;;;4.20;;
30020;SDS011;16861;52.294;7.760;2023-06-10T06:53:28;9.07;;;4.35;;
30020;SDS011;16861;52.294;7.760;2023-06-10T06:55:57;6.95;;;4.40;;
30020;SDS011;16861;52.294;7.760;2023-06-10T06:58:24;8.50;;;4.53;;
30020;SDS011;16861;52.294;7.760;2023-06-10T07:00:50;8.10;;;4.40;;
30020;SDS011;16861;52.294;7.760;2023-06-10T07:03:17;9.07;;;4.32;;
30020;SDS011;16861;52.294;7.760;2023-06-10T07:05:44;7.07;;;4.30;;
30020;SDS011;16861;52.294;7.760;2023-06-10T07:08:10;9.45;;;4.93;;
30020;SDS011;16861;52.294;7.760;2023-06-10T07:10:38;7.00;;;4.07;;
30020;SDS011;16861;52.294;7.760;2023-06-10T07:13:04;7.78;;;4.25;;
30020;SDS011;16861;52.294;7.760;2023-06-10T07:15:31;11.45;;;4.95;;
30020;SDS011;16861;52.294;7.760;2023-06-10T07:17:59;10.50;;;5.03;;
30020;SDS011;16861;52.294;7.760;2023-06-10T07:20:25;7.15;;;4.53;;
30020;SDS011;16861;52.294;7.760;2023-06-10T07:22:52;8.40;;;4.40;;
30020;SDS011;16861;52.294;7.760;2023-06-10T07:25:18;8.27;;;4.75;;
30020;SDS011;16861;52.294;7.760;2023-06-10T07:27:45;6.88;;;4.60;;
30020;SDS011;16861;52.294;7.760;2023-06-10T07:30:12;7.43;;;4.22;;
30020;SDS011;16861;52.294;7.760;2023-06-10T07:32:39;6.85;;;4.40;;
30020;SDS011;16861;52.294;7.760;2023-06-10T07:35:07;5.40;;;3.95;;
30020;SDS011;16861;52.294;7.760;2023-06-10T07:37:35;6.60;;;4.32;;
30020;SDS011;16861;52.294;7.760;2023-06-10T07:40:02;7.38;;;4.63;;
30020;SDS011;16861;52.294;7.760;2023-06-10T07:42:30;7.57;;;3.90;;
30020;SDS011;16861;52.294;7.760;2023-06-10T07:45:00;7.68;;;4.60;;
30020;SDS011;16861;52.294;7.760;2023-06-10T07:47:26;7.70;;;4.93;;
30020;SDS011;16861;52.294;7.760;2023-06-10T07:49:53;7.47;;;4.03;;
30020;SDS011;16861;52.294;7.760;2023-06-10T07:52:19;6.03;;;4.32;;
30020;SDS011;16861;52.294;7.760;2023-06-10T07:54:46;7.38;;;4.55;;
30020;SDS011;16861;52.294;7.760;2023-06-10T07:57:13;6.60;;;4.50;;
30020;SDS011;16861;52.294;7.760;2023-06-10T07:59:39;7.22;;;4.95;;
30020;SDS011;16861;52.294;7.760;2023-06-10T08:02:06;6.75;;;3.78;;
30020;SDS011;16861;52.294;7.760;2023-06-10T08:04:32;12.18;;;5.00;;
30020;SDS011;16861;52.294;7.760;2023-06-10T08:07:01;8.88;;;4.70;;
30020;SDS011;16861;52.294;7.760;2023-06-10T08:09:28;12.25;;;5.32;;
30020;SDS011;16861;52.294;7.760;2023-06-10T08:11:55;11.75;;;4.97;;
30020;SDS011;16861;52.294;7.760;2023-06-10T08:14:22;7.60;;;4.95;;
30020;SDS011;16861;52.294;7.760;2023-06-10T08:16:48;6.63;;;4.88;;
30020;SDS011;16861;52.294;7.760;2023-06-10T08:19:15;7.20;;;4.75;;
30020;SDS011;16861;52.294;7.760;2023-06-10T08:21:42;5.70;;;4.53;;
30020;SDS011;16861;52.294;7.760;2023-06-10T08:24:09;9.75;;;5.50;;
30020;SDS011;16861;52.294;7.760;2023-06-10T08:26:36;6.40;;;4.45;;
30020;SDS011;16861;52.294;7.760;2023-06-10T08:29:02;6.18;;;4.55;;
30020;SDS011;16861;52.294;7.760;2023-06-10T08:31:29;6.65;;;4.40;;
30020;SDS011;16861;52.294;7.760;2023-06-10T08:33:56;9.88;;;4.90;;
30020;SDS011;16861;52.294;7.760;2023-06-10T08:36:22;8.00;;;4.18;;
30020;SDS011;16861;52.294;7.760;2023-06-10T08:38:49;7.15;;;4.10;;
30020;SDS011;16861;52.294;7.760;2023-06-10T08:41:17;9.35;;;4.28;;
30020;SDS011;16861;52.294;7.760;2023-06-10T08:43:46;7.18;;;4.72;;
30020;SDS011;16861;52.294;7.760;2023-06-10T08:46:22;6.28;;;4.22;;
30020;SDS011;16861;52.294;7.760;2023-06-10T08:48:48;8.85;;;5.03;;
30020;SDS011;16861;52.294;7.760;2023-06-10T08:53:53;5.85;;;4.05;;
30020;SDS011;16861;52.294;7.760;2023-06-10T08:56:30;6.82;;;4.55;;
30020;SDS011;16861;52.294;7.760;2023-06-10T08:58:58;10.90;;;4.70;;
30020;SDS011;16861;52.294;7.760;2023-06-10T09:01:25;8.35;;;4.40;;
30020;SDS011;16861;52.294;7.760;2023-06-10T09:03:52;6.70;;;4.13;;
30020;SDS011;16861;52.294;7.760;2023-06-10T09:06:19;9.40;;;4.32;;
30020;SDS011;16861;52.294;7.760;2023-06-10T09:08:46;5.15;;;3.72;;
30020;SDS011;16861;52.294;7.760;2023-06-10T09:11:13;7.78;;;4.70;;
30020;SDS011;16861;52.294;7.760;2023-06-10T09:13:39;7.57;;;4.50;;
30020;SDS011;16861;52.294;7.760;2023-06-10T09:16:06;8.98;;;4.55;;
30020;SDS011;16861;52.294;7.760;2023-06-10T09:18:33;8.45;;;4.03;;
30020;SDS011;16861;52.294;7.760;2023-06-10T09:21:01;5.70;;;3.78;;
30020;SDS011;16861;52.294;7.760;2023-06-10T09:23:27;5.88;;;4.40;;
30020;SDS011;16861;52.294;7.760;2023-06-10T09:25:58;6.40;;;3.88;;
30020;SDS011;16861;52.294;7.760;2023-06-10T09:28:25;8.32;;;4.28;;
30020;SDS011;16861;52.294;7.760;2023-06-10T09:31:04;8.02;;;4.00;;
30020;SDS011;16861;52.294;7.760;2023-06-10T09:33:32;6.28;;;4.07;;
30020;SDS011;16861;52.294;7.760;2023-06-10T09:36:00;7.15;;;3.78;;
30020;SDS011;16861;52.294;7.760;2023-06-10T09:38:33;8.52;;;4.13;;
30020;SDS011;16861;52.294;7.760;2023-06-10T09:41:00;7.60;;;3.88;;
30020;SDS011;16861;52.294;7.760;2023-06-10T09:43:42;7.97;;;4.30;;
30020;SDS011;16861;52.294;7.760;2023-06-10T09:46:19;5.18;;;3.92;;
30020;SDS011;16861;52.294;7.760;2023-06-10T09:48:46;8.10;;;4.32;;
30020;SDS011;16861;52.294;7.760;2023-06-10T09:51:14;6.93;;;4.35;;
30020;SDS011;16861;52.294;7.760;2023-06-10T09:53:42;5.20;;;3.72;;
30020;SDS011;16861;52.294;7.760;2023-06-10T09:56:15;8.40;;;3.78;;
30020;SDS011;16861;52.294;7.760;2023-06-10T09:58:41;5.85;;;3.80;;
30020;SDS011;16861;52.294;7.760;2023-06-10T10:01:10;8.20;;;3.72;;
30020;SDS011;16861;52.294;7.760;2023-06-10T10:03:44;5.15;;;3.97;;
30020;SDS011;16861;52.294;7.760;2023-06-10T10:06:12;7.38;;;3.80;;
30020;SDS011;16861;52.294;7.760;2023-06-10T10:08:41;4.72;;;3.58;;
30020;SDS011;16861;52.294;7.760;2023-06-10T10:11:07;5.30;;;3.70;;
30020;SDS011;16861;52.294;7.760;2023-06-10T10:13:34;4.05;;;3.20;;
30020;SDS011;16861;52.294;7.760;2023-06-10T10:16:04;7.05;;;3.63;;
30020;SDS011;16861;52.294;7.760;2023-06-10T10:18:36;6.15;;;3.97;;
30020;SDS011;16861;52.294;7.760;2023-06-10T10:21:06;4.82;;;3.83;;
30020;SDS011;16861;52.294;7.760;2023-06-10T10:23:42;7.22;;;4.57;;
30020;SDS011;16861;52.294;7.760;2023-06-10T10:26:16;5.63;;;4.22;;
30020;SDS011;16861;52.294;7.760;2023-06-10T10:28:58;4.82;;;3.47;;
30020;SDS011;16861;52.294;7.760;2023-06-10T10:31:34;4.75;;;3.40;;
30020;SDS011;16861;52.294;7.760;2023-06-10T10:34:06;8.15;;;3.75;;
30020;SDS011;16861;52.294;7.760;2023-06-10T10:36:35;8.82;;;3.92;;
30020;SDS011;16861;52.294;7.760;2023-06-10T10:39:03;4.43;;;3.35;;
30020;SDS011;16861;52.294;7.760;2023-06-10T10:41:31;4.95;;;3.28;;
30020;SDS011;16861;52.294;7.760;2023-06-10T10:43:59;11.02;;;3.63;;
30020;SDS011;16861;52.294;7.760;2023-06-10T10:46:27;3.88;;;3.20;;
30020;SDS011;16861;52.294;7.760;2023-06-10T10:48:53;4.15;;;3.30;;
30020;SDS011;16861;52.294;7.760;2023-06-10T10:51:22;7.40;;;3.90;;
30020;SDS011;16861;52.294;7.760;2023-06-10T10:54:33;7.30;;;3.70;;
30020;SDS011;16861;52.294;7.760;2023-06-10T10:57:09;7.25;;;3.58;;
30020;SDS011;16861;52.294;7.760;2023-06-10T11:05:00;5.05;;;3.22;;
30020;SDS011;16861;52.294;7.760;2023-06-10T11:07:29;4.95;;;3.22;;
30020;SDS011;16861;52.294;7.760;2023-06-10T11:09:57;5.30;;;3.22;;
30020;SDS011;16861;52.294;7.760;2023-06-10T11:12:26;6.25;;;3.03;;
30020;SDS011;16861;52.294;7.760;2023-06-10T11:15:05;4.45;;;2.80;;
30020;SDS011;16861;52.294;7.760;2023-06-10T11:17:32;17.20;;;3.70;;
30020;SDS011;16861;52.294;7.760;2023-06-10T11:19:59;6.43;;;3.55;;
30020;SDS011;16861;52.294;7.760;2023-06-10T11:22:26;4.55;;;3.15;;
30020;SDS011;16861;52.294;7.760;2023-06-10T11:24:52;4.05;;;2.78;;
30020;SDS011;16861;52.294;7.760;2023-06-10T11:27:20;4.38;;;2.90;;
30020;SDS011;16861;52.294;7.760;2023-06-10T11:32:30;7.10;;;3.05;;
30020;SDS011;16861;52.294;7.760;2023-06-10T11:34:58;4.68;;;2.70;;
30020;SDS011;16861;52.294;7.760;2023-06-10T11:37:25;6.55;;;3.20;;
30020;SDS011;16861;52.294;7.760;2023-06-10T11:39:52;8.82;;;3.47;;
30020;SDS011;16861;52.294;7.760;2023-06-10T11:42:23;4.15;;;2.90;;
30020;SDS011;16861;52.294;7.760;2023-06-10T11:44:50;3.80;;;2.72;;
30020;SDS011;16861;52.294;7.760;2023-06-10T11:47:18;4.43;;;3.30;;
30020;SDS011;16861;52.294;7.760;2023-06-10T11:49:46;4.72;;;2.90;;
30020;SDS011;16861;52.294;7.760;2023-06-10T11:52:28;6.80;;;3.20;;
30020;SDS011;16861;52.294;7.760;2023-06-10T11:54:58;5.38;;;2.85;;
30020;SDS011;16861;52.294;7.760;2023-06-10T11:57:25;4.43;;;3.05;;
30020;SDS011;16861;52.294;7.760;2023-06-10T11:59:52;5.22;;;3.00;;
30020;SDS011;16861;52.294;7.760;2023-06-10T12:02:18;3.92;;;3.20;;
30020;SDS011;16861;52.294;7.760;2023-06-10T12:04:45;5.20;;;3.00;;
30020;SDS011;16861;52.294;7.760;2023-06-10T12:07:18;4.18;;;2.58;;
30020;SDS011;16861;52.294;7.760;2023-06-10T12:09:58;4.45;;;3.00;;
30020;SDS011;16861;52.294;7.760;2023-06-10T12:12:37;4.55;;;2.95;;
30020;SDS011;16861;52.294;7.760;2023-06-10T12:15:04;8.82;;;3.10;;
30020;SDS011;16861;52.294;7.760;2023-06-10T12:19:59;3.60;;;2.83;;
30020;SDS011;16861;52.294;7.760;2023-06-10T12:22:27;7.10;;;3.08;;
30020;SDS011;16861;52.294;7.760;2023-06-10T12:25:03;3.08;;;2.70;;
30020;SDS011;16861;52.294;7.760;2023-06-10T12:27:33;3.83;;;2.65;;
30020;SDS011;16861;52.294;7.760;2023-06-10T12:30:01;4.28;;;2.80;;
30020;SDS011;16861;52.294;7.760;2023-06-10T12:32:43;4.40;;;2.92;;
30020;SDS011;16861;52.294;7.760;2023-06-10T12:35:12;5.88;;;3.08;;
30020;SDS011;16861;52.294;7.760;2023-06-10T12:38:00;2.90;;;2.50;;
30020;SDS011;16861;52.294;7.760;2023-06-10T12:40:28;3.72;;;2.65;;
30020;SDS011;16861;52.294;7.760;2023-06-10T12:42:58;5.35;;;2.83;;
30020;SDS011;16861;52.294;7.760;2023-06-10T12:45:34;5.60;;;3.25;;
30020;SDS011;16861;52.294;7.760;2023-06-10T12:50:41;8.85;;;2.97;;
30020;SDS011;16861;52.294;7.760;2023-06-10T12:55:35;3.45;;;2.55;;
30020;SDS011;16861;52.294;7.760;2023-06-10T12:58:02;2.55;;;2.35;;
30020;SDS011;16861;52.294;7.760;2023-06-10T13:00:29;3.30;;;2.80;;
30020;SDS011;16861;52.294;7.760;2023-06-10T13:02:57;3.13;;;2.70;;
30020;SDS011;16861;52.294;7.760;2023-06-10T13:05:26;3.88;;;2.70;;
30020;SDS011;16861;52.294;7.760;2023-06-10T13:07:53;3.05;;;2.60;;
30020;SDS011;16861;52.294;7.760;2023-06-10T13:10:20;3.45;;;2.42;;
30020;SDS011;16861;52.294;7.760;2023-06-10T13:12:51;6.15;;;2.55;;
30020;SDS011;16861;52.294;7.760;2023-06-10T13:15:18;2.95;;;2.55;;
30020;SDS011;16861;52.294;7.760;2023-06-10T13:17:44;3.83;;;2.55;;
30020;SDS011;16861;52.294;7.760;2023-06-10T13:20:15;2.60;;;2.33;;
30020;SDS011;16861;52.294;7.760;2023-06-10T13:22:43;4.15;;;2.58;;
30020;SDS011;16861;52.294;7.760;2023-06-10T13:25:09;3.88;;;2.90;;
30020;SDS011;16861;52.294;7.760;2023-06-10T13:27:37;2.85;;;2.60;;
30020;SDS011;16861;52.294;7.760;2023-06-10T13:30:08;3.58;;;2.35;;
30020;SDS011;16861;52.294;7.760;2023-06-10T13:32:36;3.80;;;2.60;;
30020;SDS011;16861;52.294;7.760;2023-06-10T13:35:03;4.32;;;2.65;;
30020;SDS011;16861;52.294;7.760;2023-06-10T13:37:30;4.78;;;2.70;;
30020;SDS011;16861;52.294;7.760;2023-06-10T13:39:57;4.05;;;2.80;;
30020;SDS011;16861;52.294;7.760;2023-06-10T13:42:23;4.80;;;2.50;;
30020;SDS011;16861;52.294;7.760;2023-06-10T13:44:52;3.13;;;2.80;;
30020;SDS011;16861;52.294;7.760;2023-06-10T13:47:18;3.28;;;2.60;;
30020;SDS011;16861;52.294;7.760;2023-06-10T13:49:45;4.03;;;2.70;;
30020;SDS011;16861;52.294;7.760;2023-06-10T13:52:12;2.90;;;2.42;;
30020;SDS011;16861;52.294;7.760;2023-06-10T13:54:39;4.22;;;2.65;;
30020;SDS011;16861;52.294;7.760;2023-06-10T13:57:05;3.00;;;2.70;;
30020;SDS011;16861;52.294;7.760;2023-06-10T13:59:32;2.60;;;2.40;;
30020;SDS011;16861;52.294;7.760;2023-06-10T14:01:58;3.53;;;2.45;;
30020;SDS011;16861;52.294;7.760;2023-06-10T14:04:25;2.67;;;2.47;;
30020;SDS011;16861;52.294;7.760;2023-06-10T14:06:51;2.97;;;2.67;;
30020;SDS011;16861;52.294;7.760;2023-06-10T14:09:18;3.58;;;2.53;;
30020;SDS011;16861;52.294;7.760;2023-06-10T14:11:45;3.33;;;2.58;;
30020;SDS011;16861;52.294;7.760;2023-06-10T14:14:11;3.22;;;2.67;;
30020;SDS011;16861;52.294;7.760;2023-06-10T14:16:38;4.75;;;2.78;;
30020;SDS011;16861;52.294;7.760;2023-06-10T14:19:08;2.95;;;2.45;;
30020;SDS011;16861;52.294;7.760;2023-06-10T14:21:35;3.85;;;2.30;;
30020;SDS011;16861;52.294;7.760;2023-06-10T14:24:01;3.38;;;2.90;;
30020;SDS011;16861;52.294;7.760;2023-06-10T14:26:28;4.90;;;2.88;;
30020;SDS011;16861;52.294;7.760;2023-06-10T14:28:54;4.22;;;2.75;;
30020;SDS011;16861;52.294;7.760;2023-06-10T14:31:21;4.13;;;2.70;;
30020;SDS011;16861;52.294;7.760;2023-06-10T14:33:47;3.45;;;2.70;;
30020;SDS011;16861;52.294;7.760;2023-06-10T14:36:14;4.60;;;2.75;;
30020;SDS011;16861;52.294;7.760;2023-06-10T14:38:40;2.67;;;2.10;;
30020;SDS011;16861;52.294;7.760;2023-06-10T14:41:07;3.47;;;3.17;;
30020;SDS011;16861;52.294;7.760;2023-06-10T14:43:33;3.38;;;3.08;;
30020;SDS011;16861;52.294;7.760;2023-06-10T14:45:59;2.78;;;2.58;;
30020;SDS011;16861;52.294;7.760;2023-06-10T14:48:26;3.55;;;2.55;;
30020;SDS011;16861;52.294;7.760;2023-06-10T14:50:52;3.05;;;2.75;;
30020;SDS011;16861;52.294;7.760;2023-06-10T14:53:21;2.92;;;2.60;;
30020;SDS011;16861;52.294;7.760;2023-06-10T14:55:47;6.35;;;3.22;;
30020;SDS011;16861;52.294;7.760;2023-06-10T14:58:14;3.67;;;3.00;;
30020;SDS011;16861;52.294;7.760;2023-06-10T15:00:40;3.70;;;2.70;;
30020;SDS011;16861;52.294;7.760;2023-06-10T15:03:07;4.60;;;2.90;;
30020;SDS011;16861;52.294;7.760;2023-06-10T15:05:33;4.53;;;3.05;;
30020;SDS011;16861;52.294;7.760;2023-06-10T15:08:00;2.90;;;2.58;;
30020;SDS011;16861;52.294;7.760;2023-06-10T15:10:27;6.30;;;2.70;;